.
WxDataArchive / Data Records for 2016-04-04
2016-04-03 April 2016 2016-04-05

Data Records for Monday, 04 April 2016

Time	Temp	Chill	HIndex	Humid	Dewpt	 Wind 	HiWind	WindDir	Rain 	Barom
-----	----	-----	------	-----	-----	------	------	-------	-----	-----
00:00	56.9	56.9	56.9	46	36.3	3	7	248	0.00	29.651 
00:05	57.0	57.0	57.0	46	36.4	4	12	248	0.00	29.651 
00:10	57.2	57.2	57.2	47	37.2	3	9	248	0.00	29.651 
00:15	57.0	57.0	57.0	47	37.0	4	12	248	0.00	29.647 
00:20	57.2	57.2	57.2	48	37.7	4	13	248	0.00	29.647 
00:25	57.2	57.2	57.2	49	38.2	3	7	248	0.00	29.647 
00:30	56.9	56.9	56.9	51	39.0	3	13	248	0.00	29.646 
00:35	56.6	56.6	56.6	51	38.7	2	9	248	0.00	29.646 
00:40	56.6	56.6	56.6	50	38.2	3	7	248	0.00	29.646 
00:45	56.6	56.6	56.6	50	38.2	3	7	248	0.00	29.642 
00:50	56.6	56.6	56.6	50	38.2	2	7	248	0.00	29.642 
00:55	56.6	56.6	56.6	50	38.2	2	5	248	0.00	29.642 
01:00	56.5	56.5	56.5	50	38.1	3	6	248	0.00	29.632 
01:05	56.5	56.5	56.5	50	38.1	2	10	248	0.00	29.632 
01:10	56.5	56.5	56.5	50	38.1	3	9	248	0.00	29.632 
01:15	56.5	56.5	56.5	50	38.1	3	9	248	0.00	29.629 
01:20	56.5	56.5	56.5	51	38.6	3	7	248	0.00	29.629 
01:25	56.5	56.5	56.5	51	38.6	3	10	248	0.00	29.629 
01:30	56.6	56.6	56.6	51	38.7	3	9	248	0.00	29.631 
01:35	56.7	56.7	56.7	51	38.8	3	10	248	0.00	29.631 
01:40	56.9	56.9	56.9	51	39.0	3	10	270	0.00	29.631 
01:45	56.9	56.9	56.9	51	39.0	3	9	248	0.00	29.635 
01:50	57.0	57.0	57.0	51	39.1	3	7	248	0.00	29.635 
01:55	57.3	57.3	57.3	52	39.8	4	12	248	0.00	29.635 
02:00	57.2	57.2	57.2	53	40.2	3	9	248	0.00	29.652 
02:05	57.2	57.2	57.2	53	40.2	3	5	248	0.00	29.652 
02:10	57.2	57.2	57.2	54	40.7	2	6	248	0.00	29.652 
02:15	57.0	57.0	57.0	54	40.5	2	7	248	0.00	29.649 
02:20	57.0	57.0	57.0	54	40.5	2	6	248	0.00	29.649 
02:25	57.0	57.0	57.0	54	40.5	2	6	248	0.00	29.649 
02:30	57.2	57.2	57.2	53	40.2	2	5	248	0.00	29.643 
02:35	57.3	57.3	57.3	53	40.3	2	8	248	0.00	29.643 
02:40	57.2	57.2	57.2	54	40.7	2	6	248	0.00	29.643 
02:45	57.3	57.3	57.3	54	40.8	2	5	248	0.00	29.654 
02:50	57.2	57.2	57.2	54	40.7	2	6	248	0.00	29.654 
02:55	57.2	57.2	57.2	55	41.2	3	6	248	0.00	29.654 
03:00	57.0	57.0	57.0	57	41.9	2	5	248	0.00	29.655 
03:05	56.7	56.7	56.7	57	41.6	3	6	248	0.00	29.655 
03:10	56.6	56.6	56.6	57	41.5	2	9	248	0.00	29.655 
03:15	56.5	56.5	56.5	58	41.9	3	7	248	0.00	29.650 
03:20	56.3	56.3	56.3	58	41.7	2	6	270	0.00	29.650 
03:25	56.0	56.0	56.0	58	41.4	2	4	270	0.00	29.650 
03:30	56.0	56.0	56.0	58	41.4	3	6	248	0.00	29.649 
03:35	56.0	56.0	56.0	58	41.4	2	10	248	0.00	29.649 
03:40	55.9	55.9	55.9	62	43.1	2	9	248	0.00	29.649 
03:45	55.3	55.3	55.3	62	42.5	2	7	270	0.00	29.651 
03:50	55.1	55.1	55.1	62	42.3	2	4	248	0.00	29.651 
03:55	55.0	55.0	55.0	62	42.2	3	6	270	0.00	29.651 
04:00	54.8	54.8	54.8	62	42.0	2	4	270	0.00	29.655 
04:05	54.5	54.5	54.5	63	42.2	2	7	270	0.00	29.655 
04:10	54.1	54.1	54.1	64	42.2	2	5	292	0.00	29.655 
04:15	53.8	53.8	53.8	65	42.3	2	5	292	0.00	29.662 
04:20	53.6	53.6	53.6	66	42.5	2	5	270	0.00	29.662 
04:25	53.3	53.3	53.3	68	43.0	2	4	292	0.00	29.662 
04:30	53.1	53.1	53.1	71	43.9	3	5	270	0.00	29.672 
04:35	52.5	52.5	52.5	73	44.1	3	7	270	0.00	29.672 
04:40	52.0	52.0	52.0	74	44.0	4	6	270	0.00	29.672 
04:45	51.6	51.6	51.6	75	43.9	2	4	292	0.00	29.679 
04:50	51.1	51.1	51.1	77	44.1	2	7	292	0.00	29.679 
04:55	50.8	50.8	50.8	77	43.9	4	7	292	0.00	29.679 
05:00	50.2	50.2	50.2	75	42.6	3	10	292	0.00	29.699 
05:05	48.8	47.5	48.8	71	39.8	4	12	292	0.00	29.699 
05:10	47.4	45.9	47.4	72	38.8	4	10	292	0.00	29.699 
05:15	46.2	44.5	46.2	74	38.4	4	13	292	0.00	29.718 
05:20	45.5	45.5	45.5	76	38.4	3	8	292	0.00	29.718 
05:25	44.8	44.8	44.8	77	38.0	3	9	292	0.00	29.718 
05:30	44.2	44.2	44.2	78	37.8	3	10	292	0.00	29.719 
05:35	43.8	43.8	43.8	79	37.7	3	12	292	0.00	29.719 
05:40	43.5	43.5	43.5	80	37.7	2	5	292	0.00	29.719 
05:45	43.1	43.1	43.1	81	37.7	2	7	292	0.00	29.733 
05:50	42.6	40.3	42.6	81	37.2	4	10	292	0.00	29.733 
05:55	42.3	40.0	42.3	81	36.9	4	10	292	0.00	29.733 
06:00	42.1	42.1	42.1	82	37.0	3	8	292	0.00	29.748 
06:05	41.9	41.9	41.9	82	36.8	3	7	315	0.00	29.748 
06:10	41.8	41.8	41.8	82	36.7	2	5	292	0.00	29.748 
06:15	41.8	41.8	41.8	83	37.0	2	6	292	0.00	29.744 
06:20	41.6	41.6	41.6	83	36.8	2	4	292	0.00	29.744 
06:25	41.5	41.5	41.5	83	36.7	2	6	292	0.00	29.744 
06:30	41.5	41.5	41.5	83	36.7	2	6	292	0.00	29.758 
06:35	41.5	41.5	41.5	83	36.7	2	6	292	0.00	29.758 
06:40	41.5	41.5	41.5	84	37.0	2	7	315	0.00	29.758 
06:45	41.5	41.5	41.5	83	36.7	2	9	292	0.00	29.773 
06:50	40.8	40.8	40.8	82	35.7	2	6	315	0.00	29.773 
06:55	39.6	39.6	39.6	81	34.3	2	7	315	0.00	29.773 
07:00	38.9	38.9	38.9	81	33.6	2	6	315	0.00	29.780 
07:05	38.2	38.2	38.2	82	33.2	3	8	338	0.00	29.780 
07:10	37.6	37.6	37.6	83	32.9	1	4	315	0.00	29.780 
07:15	37.3	37.3	37.3	83	32.6	2	7	315	0.00	29.806 
07:20	37.0	37.0	37.0	83	32.3	1	5	315	0.00	29.806 
07:25	36.6	36.6	36.6	83	31.9	3	7	338	0.00	29.806 
07:30	36.0	36.0	36.0	82	31.0	3	10	315	0.00	29.823 
07:35	35.9	35.9	35.9	83	31.2	1	6	315	0.00	29.823 
07:40	35.8	35.8	35.8	82	30.9	1	6	292	0.00	29.823 
07:45	35.6	35.6	35.6	82	30.7	2	5	292	0.00	29.837 
07:50	35.5	35.5	35.5	83	30.9	1	9	315	0.00	29.837 
07:55	35.3	35.3	35.3	83	30.7	2	5	292	0.00	29.837 
08:00	35.2	35.2	35.2	83	30.6	1	4	315	0.00	29.857 
08:05	35.0	35.0	35.0	83	30.4	1	6	22	0.00	29.857 
08:10	34.9	34.9	34.9	83	30.3	0	4	0	0.00	29.857 
08:15	34.9	34.9	34.9	83	30.3	1	3	338	0.00	29.869 
08:20	34.7	34.7	34.7	84	30.4	0	3	338	0.00	29.869 
08:25	34.7	34.7	34.7	84	30.4	0	3	338	0.00	29.869 
08:30	34.6	34.6	34.6	84	30.3	0	2	338	0.00	29.888 
08:35	34.4	34.4	34.4	84	30.1	1	3	338	0.00	29.888 
08:40	34.4	34.4	34.4	84	30.1	1	6	292	0.00	29.888 
08:45	34.3	34.3	34.3	84	30.0	1	3	315	0.00	29.904 
08:50	34.1	34.1	34.1	84	29.8	2	6	315	0.00	29.904 
08:55	34.1	34.1	34.1	84	29.8	1	6	338	0.00	29.904 
09:00	34.0	34.0	34.0	84	29.7	2	5	292	0.00	29.918 
09:05	33.8	33.8	33.8	84	29.5	2	7	292	0.00	29.918 
09:10	33.8	33.8	33.8	84	29.5	1	6	22	0.00	29.918 
09:15	33.8	33.8	33.8	83	29.2	1	5	292	0.00	29.928 
09:20	34.0	34.0	34.0	84	29.7	1	4	292	0.00	29.928 
09:25	34.0	34.0	34.0	84	29.7	1	4	292	0.00	29.928 
09:30	33.8	33.8	33.8	84	29.5	1	5	158	0.00	29.937 
09:35	33.8	33.8	33.8	84	29.5	1	4	292	0.00	29.937 
09:40	33.8	33.8	33.8	84	29.5	1	3	292	0.00	29.937 
09:45	33.7	33.7	33.7	84	29.4	1	4	315	0.00	29.937 
09:50	33.7	33.7	33.7	84	29.4	1	4	338	0.00	29.937 
09:55	33.7	33.7	33.7	84	29.4	0	2	338	0.00	29.937 
10:00	33.7	33.7	33.7	84	29.4	0	3	338	0.00	29.941 
10:05	33.8	33.8	33.8	84	29.5	1	4	315	0.00	29.941 
10:10	34.0	34.0	34.0	84	29.7	1	3	315	0.00	29.941 
10:15	34.0	34.0	34.0	83	29.4	1	5	292	0.00	29.956 
10:20	34.0	34.0	34.0	82	29.1	2	4	292	0.00	29.956 
10:25	34.0	34.0	34.0	82	29.1	1	4	338	0.00	29.956 
10:30	34.0	34.0	34.0	82	29.1	1	3	292	0.00	29.968 
10:35	34.1	34.1	34.1	82	29.2	1	5	68	0.00	29.968 
10:40	34.0	34.0	34.0	82	29.1	1	6	292	0.00	29.968 
10:45	34.1	34.1	34.1	82	29.2	1	4	292	0.00	29.978 
10:50	34.3	34.3	34.3	81	29.1	1	4	292	0.00	29.978 
10:55	34.3	34.3	34.3	81	29.1	1	4	135	0.00	29.978 
11:00	34.4	34.4	34.4	81	29.2	1	4	22	0.00	29.984 
11:05	34.4	34.4	34.4	80	28.9	1	4	338	0.00	29.984 
11:10	34.6	34.6	34.6	80	29.1	1	3	135	0.00	29.984 
11:15	34.7	34.7	34.7	80	29.2	1	6	45	0.00	29.995 
11:20	34.7	34.7	34.7	80	29.2	1	4	22	0.00	29.995 
11:25	34.9	34.9	34.9	80	29.4	1	4	315	0.00	29.995 
11:30	34.9	34.9	34.9	79	29.1	2	4	315	0.00	29.999 
11:35	35.0	35.0	35.0	78	28.8	1	4	0	0.00	29.999 
11:40	35.2	35.2	35.2	76	28.4	2	6	0	0.00	29.999 
11:45	35.3	35.3	35.3	76	28.5	1	5	315	0.00	30.008 
11:50	35.8	35.8	35.8	75	28.7	2	9	292	0.00	30.008 
11:55	36.0	36.0	36.0	74	28.5	1	4	90	0.00	30.008 
12:00	36.2	36.2	36.2	73	28.4	1	5	22	0.00	30.014 
12:05	36.5	36.5	36.5	73	28.7	1	6	112	0.00	30.014 
12:10	37.0	37.0	37.0	72	28.8	1	6	22	0.00	30.014 
12:15	37.3	37.3	37.3	70	28.4	1	7	45	0.00	30.017 
12:20	37.2	37.2	37.2	69	28.0	1	4	0	0.00	30.017 
12:25	37.5	37.5	37.5	70	28.6	1	4	0	0.00	30.017 
12:30	37.8	37.8	37.8	69	28.6	2	4	292	0.00	30.024 
12:35	38.2	38.2	38.2	69	28.9	1	5	292	0.00	30.024 
12:40	38.6	38.6	38.6	65	27.9	2	5	292	0.00	30.024 
12:45	38.5	38.5	38.5	64	27.4	1	6	112	0.00	30.026 
12:50	38.0	38.0	38.0	65	27.3	2	7	292	0.00	30.026 
12:55	38.0	38.0	38.0	65	27.3	1	4	45	0.00	30.026 
13:00	38.0	38.0	38.0	66	27.7	1	4	315	0.00	30.031 
13:05	38.0	38.0	38.0	65	27.3	2	6	292	0.00	30.031 
13:10	37.9	37.9	37.9	63	26.4	3	7	292	0.00	30.031 
13:15	37.8	37.8	37.8	64	26.7	2	6	315	0.00	30.038 
13:20	37.8	37.8	37.8	64	26.7	2	5	338	0.00	30.038 
13:25	37.8	37.8	37.8	65	27.1	1	6	68	0.00	30.038 
13:30	37.9	37.9	37.9	65	27.2	1	3	338	0.00	30.045 
13:35	37.8	37.8	37.8	65	27.1	1	5	292	0.00	30.045 
13:40	37.6	37.6	37.6	65	26.9	1	5	292	0.00	30.045 
13:45	37.8	37.8	37.8	64	26.7	1	4	270	0.00	30.053 
13:50	37.6	37.6	37.6	64	26.5	2	7	315	0.00	30.053 
13:55	37.6	37.6	37.6	65	26.9	1	5	292	0.00	30.053 
14:00	37.8	37.8	37.8	64	26.7	1	3	292	0.00	30.060 
14:05	37.9	37.9	37.9	64	26.8	1	4	292	0.00	30.060 
14:10	37.9	37.9	37.9	63	26.4	1	3	292	0.00	30.060 
14:15	37.9	37.9	37.9	64	26.8	0	3	0	0.00	30.062 
14:20	38.0	38.0	38.0	64	26.9	1	3	0	0.00	30.062 
14:25	38.0	38.0	38.0	63	26.5	1	5	0	0.00	30.062 
14:30	38.0	38.0	38.0	63	26.5	1	5	315	0.00	30.069 
14:35	38.0	38.0	38.0	64	26.9	1	3	315	0.00	30.069 
14:40	37.9	37.9	37.9	63	26.4	1	4	315	0.00	30.069 
14:45	37.9	37.9	37.9	64	26.8	1	5	0	0.00	30.074 
14:50	37.8	37.8	37.8	65	27.1	1	3	315	0.00	30.074 
14:55	37.8	37.8	37.8	64	26.7	1	3	0	0.00	30.074 
15:00	37.8	37.8	37.8	64	26.7	1	3	315	0.00	30.077 
15:05	37.8	37.8	37.8	64	26.7	1	4	338	0.00	30.077 
15:10	37.5	37.5	37.5	63	26.1	1	6	45	0.00	30.077 
15:15	37.5	37.5	37.5	64	26.4	0	4	45	0.00	30.081 
15:20	37.3	37.3	37.3	64	26.3	1	5	68	0.00	30.081 
15:25	37.2	37.2	37.2	65	26.5	1	5	338	0.00	30.081 
15:30	37.0	37.0	37.0	64	26.0	1	9	112	0.00	30.085 
15:35	37.0	37.0	37.0	65	26.3	1	4	315	0.00	30.085 
15:40	36.9	36.9	36.9	67	27.0	0	3	90	0.00	30.085 
15:45	36.8	36.8	36.8	67	26.9	1	3	68	0.00	30.091 
15:50	36.6	36.6	36.6	69	27.4	1	5	112	0.00	30.091 
15:55	36.5	36.5	36.5	68	27.0	1	4	90	0.00	30.091 
16:00	36.5	36.5	36.5	68	27.0	1	4	45	0.00	30.095 
16:05	36.3	36.3	36.3	69	27.1	0	3	45	0.00	30.095 
16:10	36.2	36.2	36.2	68	26.7	1	5	68	0.00	30.095 
16:15	36.0	36.0	36.0	68	26.5	1	5	68	0.00	30.105 
16:20	36.0	36.0	36.0	68	26.5	0	4	338	0.00	30.105 
16:25	36.0	36.0	36.0	69	26.8	1	4	0	0.00	30.105 
16:30	35.9	35.9	35.9	68	26.4	0	2	0	0.00	30.113 
16:35	35.8	35.8	35.8	67	25.9	0	2	0	0.00	30.113 
16:40	35.9	35.9	35.9	67	26.0	0	3	0	0.00	30.113 
16:45	35.9	35.9	35.9	67	26.0	0	2	68	0.00	30.119 
16:50	35.9	35.9	35.9	66	25.7	1	5	90	0.00	30.119 
16:55	35.9	35.9	35.9	66	25.7	1	4	45	0.00	30.119 
17:00	35.8	35.8	35.8	66	25.6	0	2	45	0.00	30.128 
17:05	35.9	35.9	35.9	67	26.0	1	4	292	0.00	30.128 
17:10	35.9	35.9	35.9	66	25.7	0	4	292	0.00	30.128 
17:15	35.9	35.9	35.9	66	25.7	1	7	292	0.00	30.139 
17:20	35.9	35.9	35.9	64	24.9	1	4	45	0.00	30.139 
17:25	35.9	35.9	35.9	62	24.2	1	5	292	0.00	30.139 
17:30	36.0	36.0	36.0	61	23.9	1	3	292	0.00	30.147 
17:35	36.0	36.0	36.0	60	23.5	1	5	338	0.00	30.147 
17:40	35.9	35.9	35.9	58	22.6	1	4	338	0.00	30.147 
17:45	35.9	35.9	35.9	60	23.4	1	3	22	0.00	30.153 
17:50	35.9	35.9	35.9	62	24.2	1	3	68	0.00	30.153 
17:55	35.9	35.9	35.9	63	24.5	1	4	22	0.00	30.153 
18:00	35.8	35.8	35.8	64	24.8	1	4	0	0.00	30.164 
18:05	35.5	35.5	35.5	64	24.5	1	3	112	0.00	30.164 
18:10	35.5	35.5	35.5	65	24.9	1	4	45	0.00	30.164 
18:15	35.5	35.5	35.5	65	24.9	0	3	22	0.00	30.172 
18:20	35.5	35.5	35.5	64	24.5	1	3	22	0.00	30.172 
18:25	35.5	35.5	35.5	64	24.5	1	6	292	0.00	30.172 
18:30	35.3	35.3	35.3	63	24.0	0	3	338	0.00	30.179 
18:35	35.3	35.3	35.3	62	23.6	0	2	338	0.00	30.179 
18:40	35.3	35.3	35.3	62	23.6	0	2	338	0.00	30.179 
18:45	35.3	35.3	35.3	62	23.6	0	3	338	0.00	30.185 
18:50	35.2	35.2	35.2	61	23.1	1	4	315	0.00	30.185 
18:55	35.2	35.2	35.2	61	23.1	1	3	315	0.00	30.185 
19:00	35.0	35.0	35.0	61	22.9	0	3	315	0.00	30.191 
19:05	35.0	35.0	35.0	62	23.3	0	2	315	0.00	30.191 
19:10	35.2	35.2	35.2	62	23.5	1	3	315	0.00	30.191 
19:15	35.0	35.0	35.0	62	23.3	0	3	315	0.00	30.206 
19:20	35.0	35.0	35.0	63	23.7	1	4	292	0.00	30.206 
19:25	35.0	35.0	35.0	63	23.7	1	3	315	0.00	30.206 
19:30	34.9	34.9	34.9	64	24.0	0	3	315	0.00	30.208 
19:35	34.9	34.9	34.9	64	24.0	0	3	315	0.00	30.208 
19:40	34.9	34.9	34.9	64	24.0	0	3	292	0.00	30.208 
19:45	34.9	34.9	34.9	64	24.0	0	3	292	0.00	30.210 
19:50	34.9	34.9	34.9	64	24.0	0	2	292	0.00	30.210 
19:55	34.7	34.7	34.7	63	23.4	1	5	292	0.00	30.210 
20:00	34.7	34.7	34.7	63	23.4	0	3	270	0.00	30.220 
20:05	34.6	34.6	34.6	63	23.3	0	3	270	0.00	30.220 
20:10	34.4	34.4	34.4	63	23.1	0	4	270	0.00	30.220 
20:15	34.4	34.4	34.4	63	23.1	0	1	270	0.00	30.221 
20:20	34.3	34.3	34.3	63	23.0	0	1	270	0.00	30.221 
20:25	34.1	34.1	34.1	64	23.2	0	2	270	0.00	30.221 
20:30	34.1	34.1	34.1	64	23.2	0	1	270	0.00	30.226 
20:35	34.0	34.0	34.0	65	23.5	0	1	270	0.00	30.226 
20:40	34.0	34.0	34.0	65	23.5	0	1	270	0.00	30.226 
20:45	34.0	34.0	34.0	65	23.5	0	1	270	0.00	30.236 
20:50	34.0	34.0	34.0	65	23.5	0	1	270	0.00	30.236 
20:55	33.8	33.8	33.8	66	23.7	0	0	---	0.00	30.236 
21:00	33.8	33.8	33.8	66	23.7	0	2	270	0.00	30.242 
21:05	33.7	33.7	33.7	67	23.9	0	1	270	0.00	30.242 
21:10	33.7	33.7	33.7	67	23.9	0	3	270	0.00	30.242 
21:15	33.7	33.7	33.7	67	23.9	0	1	270	0.00	30.250 
21:20	33.7	33.7	33.7	66	23.6	0	3	270	0.00	30.250 
21:25	33.7	33.7	33.7	67	23.9	0	3	270	0.00	30.250 
21:30	33.7	33.7	33.7	67	23.9	0	1	270	0.00	30.255 
21:35	33.7	33.7	33.7	67	23.9	0	2	270	0.00	30.255 
21:40	33.7	33.7	33.7	67	23.9	0	1	270	0.00	30.255 
21:45	33.7	33.7	33.7	67	23.9	0	2	270	0.00	30.261 
21:50	33.7	33.7	33.7	67	23.9	0	3	270	0.00	30.261 
21:55	33.7	33.7	33.7	67	23.9	0	1	270	0.00	30.261 
22:00	33.7	33.7	33.7	67	23.9	0	2	270	0.00	30.272 
22:05	33.7	33.7	33.7	68	24.3	0	2	270	0.00	30.272 
22:10	33.7	33.7	33.7	67	23.9	0	1	270	0.00	30.272 
22:15	33.7	33.7	33.7	68	24.3	0	1	270	0.00	30.282 
22:20	33.5	33.5	33.5	68	24.1	0	2	270	0.00	30.282 
22:25	33.5	33.5	33.5	68	24.1	0	2	270	0.00	30.282 
22:30	33.5	33.5	33.5	67	23.7	0	2	270	0.00	30.288 
22:35	33.5	33.5	33.5	68	24.1	0	1	270	0.00	30.288 
22:40	33.4	33.4	33.4	68	24.0	0	2	270	0.00	30.288 
22:45	33.4	33.4	33.4	68	24.0	0	2	270	0.00	30.295 
22:50	33.4	33.4	33.4	69	24.3	0	2	270	0.00	30.295 
22:55	33.2	33.2	33.2	68	23.8	0	2	270	0.00	30.295 
23:00	33.2	33.2	33.2	68	23.8	0	2	270	0.00	30.300 
23:05	33.2	33.2	33.2	68	23.8	0	1	270	0.00	30.300 
23:10	33.2	33.2	33.2	68	23.8	0	2	270	0.00	30.300 
23:15	33.2	33.2	33.2	69	24.2	0	1	270	0.00	30.301 
23:20	33.2	33.2	33.2	69	24.2	0	3	270	0.00	30.301 
23:25	33.1	33.1	33.1	69	24.1	0	4	270	0.00	30.301 
23:30	32.9	32.9	32.9	69	23.9	0	2	270	0.00	30.305 
23:35	32.9	32.9	32.9	69	23.9	0	3	270	0.00	30.305 
23:40	32.8	32.8	32.8	69	23.8	0	4	270	0.00	30.305 
23:45	32.7	32.7	32.7	69	23.7	0	3	292	0.00	30.305 
23:50	32.5	32.5	32.5	69	23.5	1	4	292	0.00	30.305 
23:55	32.4	32.4	32.4	69	23.4	0	1	292	0.00	30.305 

CoCoRaHS
IN-AL-39
A2 Web Hosting
Creative Commons License
GoDaddy
search engine by freefind advanced

loaded 2018-11-17 22:24:19 • last modified 2010-11-18 10:43:29
Privacy PolicyDisclaimer
• wx.awcolley.com is powered by PmWiki v.2002016 •
• all content (unless otherwise noted) © 2018 A W Colley